Terminal Aerodrome Forecast
Issued by NWS

Home | Current Version | Previous Version | Graphics & Text | Print | Product List | Glossary On
Versions: 1 2 3 4 5 6 7 8 9 10 11 12 13 14 15 16 17 18 19 20 21 22 23 24 25 26 27 28 29
000
FTUS43 KLOT 220437 AAB
TAFGYY
TAF AMD
KGYY 220437Z 2205/2224 20007KT P6SM BKN060
      TEMPO 2205/2207 24020G30KT 2SM TSRA SCT030 OVC060CB
     FM220700 23009KT P6SM VCTS SCT030 BKN060CB
      TEMPO 2209/2211 2SM TSRA OVC015CB
     FM221100 25010KT 6SM -SHRA BR OVC020
     FM221400 29011KT P6SM BKN015
     FM221600 32012G18KT P6SM SCT035=

USA.gov is the U.S. government's official web portal to all federal, state and local government web resources and services.